sensor_id;sensor_type;location;lat;lon;timestamp;temperature;humidity
21039;DHT22;10678;51.002;4.786;2022-07-21T00:02:06;20.10;99.90
21039;DHT22;10678;51.002;4.786;2022-07-21T00:04:32;20.10;99.90
21039;DHT22;10678;51.002;4.786;2022-07-21T00:06:57;20.10;99.90
21039;DHT22;10678;51.002;4.786;2022-07-21T00:09:23;20.00;99.90
21039;DHT22;10678;51.002;4.786;2022-07-21T00:11:49;19.90;99.90
21039;DHT22;10678;51.002;4.786;2022-07-21T00:14:15;19.90;99.90
21039;DHT22;10678;51.002;4.786;2022-07-21T00:16:41;20.00;99.90
21039;DHT22;10678;51.002;4.786;2022-07-21T00:19:07;20.10;99.90
21039;DHT22;10678;51.002;4.786;2022-07-21T00:21:34;20.00;99.90
21039;DHT22;10678;51.002;4.786;2022-07-21T00:23:59;19.90;99.90
21039;DHT22;10678;51.002;4.786;2022-07-21T00:26:25;20.00;99.90
21039;DHT22;10678;51.002;4.786;2022-07-21T00:28:51;19.90;99.90
21039;DHT22;10678;51.002;4.786;2022-07-21T00:31:16;20.00;99.90
21039;DHT22;10678;51.002;4.786;2022-07-21T00:33:42;20.00;99.90
21039;DHT22;10678;51.002;4.786;2022-07-21T00:36:08;20.00;99.90
21039;DHT22;10678;51.002;4.786;2022-07-21T00:38:34;20.00;99.90
21039;DHT22;10678;51.002;4.786;2022-07-21T00:40:59;19.90;99.90
21039;DHT22;10678;51.002;4.786;2022-07-21T00:43:25;19.90;99.90
21039;DHT22;10678;51.002;4.786;2022-07-21T00:45:57;19.90;99.90
21039;DHT22;10678;51.002;4.786;2022-07-21T00:48:23;20.00;99.90
21039;DHT22;10678;51.002;4.786;2022-07-21T00:50:48;20.00;99.90
21039;DHT22;10678;51.002;4.786;2022-07-21T00:53:15;20.00;99.90
21039;DHT22;10678;51.002;4.786;2022-07-21T00:55:44;20.00;99.90
21039;DHT22;10678;51.002;4.786;2022-07-21T00:58:10;20.00;99.90
21039;DHT22;10678;51.002;4.786;2022-07-21T01:00:36;20.00;99.90
21039;DHT22;10678;51.002;4.786;2022-07-21T01:03:02;19.90;99.90
21039;DHT22;10678;51.002;4.786;2022-07-21T01:05:28;20.00;99.90
21039;DHT22;10678;51.002;4.786;2022-07-21T01:07:55;20.00;99.90
21039;DHT22;10678;51.002;4.786;2022-07-21T01:10:23;20.00;99.90
21039;DHT22;10678;51.002;4.786;2022-07-21T01:12:49;20.00;99.90
21039;DHT22;10678;51.002;4.786;2022-07-21T01:15:17;20.10;99.90
21039;DHT22;10678;51.002;4.786;2022-07-21T01:17:44;20.00;99.90
21039;DHT22;10678;51.002;4.786;2022-07-21T01:20:16;20.00;99.90
21039;DHT22;10678;51.002;4.786;2022-07-21T01:22:45;20.20;99.90
21039;DHT22;10678;51.002;4.786;2022-07-21T01:25:11;20.20;99.90
21039;DHT22;10678;51.002;4.786;2022-07-21T01:27:38;20.20;99.90
21039;DHT22;10678;51.002;4.786;2022-07-21T01:30:05;20.20;99.90
21039;DHT22;10678;51.002;4.786;2022-07-21T01:32:34;20.20;99.90
21039;DHT22;10678;51.002;4.786;2022-07-21T01:35:00;20.20;99.90
21039;DHT22;10678;51.002;4.786;2022-07-21T01:37:29;20.30;99.90
21039;DHT22;10678;51.002;4.786;2022-07-21T01:39:55;20.30;99.90
21039;DHT22;10678;51.002;4.786;2022-07-21T01:42:39;20.30;99.90
21039;DHT22;10678;51.002;4.786;2022-07-21T01:45:06;20.30;99.90
21039;DHT22;10678;51.002;4.786;2022-07-21T01:47:32;20.30;99.90
21039;DHT22;10678;51.002;4.786;2022-07-21T01:49:58;20.30;99.90
21039;DHT22;10678;51.002;4.786;2022-07-21T01:52:24;20.20;99.90
21039;DHT22;10678;51.002;4.786;2022-07-21T01:54:50;20.20;99.90
21039;DHT22;10678;51.002;4.786;2022-07-21T01:57:16;20.10;99.90
21039;DHT22;10678;51.002;4.786;2022-07-21T01:59:42;20.10;99.90
21039;DHT22;10678;51.002;4.786;2022-07-21T02:02:07;20.00;99.90
21039;DHT22;10678;51.002;4.786;2022-07-21T02:04:33;20.10;99.90
21039;DHT22;10678;51.002;4.786;2022-07-21T02:07:01;20.00;99.90
21039;DHT22;10678;51.002;4.786;2022-07-21T02:09:27;20.00;99.90
21039;DHT22;10678;51.002;4.786;2022-07-21T02:11:53;20.00;99.90
21039;DHT22;10678;51.002;4.786;2022-07-21T02:14:18;19.90;99.90
21039;DHT22;10678;51.002;4.786;2022-07-21T02:16:44;19.90;99.90
21039;DHT22;10678;51.002;4.786;2022-07-21T02:19:09;19.90;99.90
21039;DHT22;10678;51.002;4.786;2022-07-21T02:21:35;19.90;99.90
21039;DHT22;10678;51.002;4.786;2022-07-21T02:24:01;19.80;99.90
21039;DHT22;10678;51.002;4.786;2022-07-21T02:26:27;19.90;99.90
21039;DHT22;10678;51.002;4.786;2022-07-21T02:28:52;19.90;99.90
21039;DHT22;10678;51.002;4.786;2022-07-21T02:31:18;19.90;99.90
21039;DHT22;10678;51.002;4.786;2022-07-21T02:33:44;19.90;99.90
21039;DHT22;10678;51.002;4.786;2022-07-21T02:36:09;19.80;99.90
21039;DHT22;10678;51.002;4.786;2022-07-21T02:38:35;19.70;99.90
21039;DHT22;10678;51.002;4.786;2022-07-21T02:41:01;19.70;99.90
21039;DHT22;10678;51.002;4.786;2022-07-21T02:43:27;19.70;99.90
21039;DHT22;10678;51.002;4.786;2022-07-21T02:45:52;19.60;99.90
21039;DHT22;10678;51.002;4.786;2022-07-21T02:48:18;19.60;99.90
21039;DHT22;10678;51.002;4.786;2022-07-21T02:50:44;19.70;99.90
21039;DHT22;10678;51.002;4.786;2022-07-21T02:53:15;19.80;99.90
21039;DHT22;10678;51.002;4.786;2022-07-21T02:55:48;19.80;99.90
21039;DHT22;10678;51.002;4.786;2022-07-21T02:58:17;19.70;99.90
21039;DHT22;10678;51.002;4.786;2022-07-21T03:00:55;19.70;99.90
21039;DHT22;10678;51.002;4.786;2022-07-21T03:03:24;19.80;99.90
21039;DHT22;10678;51.002;4.786;2022-07-21T03:05:51;19.80;99.90
21039;DHT22;10678;51.002;4.786;2022-07-21T03:08:17;19.80;99.90
21039;DHT22;10678;51.002;4.786;2022-07-21T03:10:43;19.90;99.90
21039;DHT22;10678;51.002;4.786;2022-07-21T03:13:09;19.90;99.90
21039;DHT22;10678;51.002;4.786;2022-07-21T03:15:36;20.00;99.90
21039;DHT22;10678;51.002;4.786;2022-07-21T03:18:02;20.00;99.90
21039;DHT22;10678;51.002;4.786;2022-07-21T03:20:32;20.10;99.90
21039;DHT22;10678;51.002;4.786;2022-07-21T03:22:58;20.10;99.90
21039;DHT22;10678;51.002;4.786;2022-07-21T03:25:25;20.10;99.90
21039;DHT22;10678;51.002;4.786;2022-07-21T03:27:51;20.00;99.90
21039;DHT22;10678;51.002;4.786;2022-07-21T03:30:17;20.00;99.90
21039;DHT22;10678;51.002;4.786;2022-07-21T03:32:43;20.00;99.90
21039;DHT22;10678;51.002;4.786;2022-07-21T03:35:10;20.00;99.90
21039;DHT22;10678;51.002;4.786;2022-07-21T03:37:51;20.00;99.90
21039;DHT22;10678;51.002;4.786;2022-07-21T03:40:19;20.00;99.90
21039;DHT22;10678;51.002;4.786;2022-07-21T03:42:48;20.10;99.90
21039;DHT22;10678;51.002;4.786;2022-07-21T03:45:14;20.00;99.90
21039;DHT22;10678;51.002;4.786;2022-07-21T03:47:40;20.10;99.90
21039;DHT22;10678;51.002;4.786;2022-07-21T03:50:06;20.10;99.90
21039;DHT22;10678;51.002;4.786;2022-07-21T03:52:31;20.10;99.90
21039;DHT22;10678;51.002;4.786;2022-07-21T03:54:57;20.10;99.90
21039;DHT22;10678;51.002;4.786;2022-07-21T03:57:38;20.00;99.90
21039;DHT22;10678;51.002;4.786;2022-07-21T04:00:08;20.00;99.90
21039;DHT22;10678;51.002;4.786;2022-07-21T04:02:34;20.00;99.90
21039;DHT22;10678;51.002;4.786;2022-07-21T04:05:00;20.00;99.90
21039;DHT22;10678;51.002;4.786;2022-07-21T04:07:25;20.10;99.90
21039;DHT22;10678;51.002;4.786;2022-07-21T04:09:51;20.10;99.90
21039;DHT22;10678;51.002;4.786;2022-07-21T04:12:17;20.20;99.90
21039;DHT22;10678;51.002;4.786;2022-07-21T04:14:43;20.20;99.90
21039;DHT22;10678;51.002;4.786;2022-07-21T04:17:08;20.20;99.90
21039;DHT22;10678;51.002;4.786;2022-07-21T04:19:34;20.20;99.90
21039;DHT22;10678;51.002;4.786;2022-07-21T04:22:00;20.20;99.90
21039;DHT22;10678;51.002;4.786;2022-07-21T04:24:25;20.20;99.90
21039;DHT22;10678;51.002;4.786;2022-07-21T04:26:51;20.20;99.90
21039;DHT22;10678;51.002;4.786;2022-07-21T04:29:16;20.30;99.90
21039;DHT22;10678;51.002;4.786;2022-07-21T04:31:42;20.20;99.90
21039;DHT22;10678;51.002;4.786;2022-07-21T04:34:08;20.30;99.90
21039;DHT22;10678;51.002;4.786;2022-07-21T04:36:33;20.20;99.90
21039;DHT22;10678;51.002;4.786;2022-07-21T04:38:59;20.30;99.90
21039;DHT22;10678;51.002;4.786;2022-07-21T04:41:24;20.40;99.90
21039;DHT22;10678;51.002;4.786;2022-07-21T04:43:50;20.40;99.90
21039;DHT22;10678;51.002;4.786;2022-07-21T04:46:15;20.40;99.90
21039;DHT22;10678;51.002;4.786;2022-07-21T04:48:41;20.50;99.90
21039;DHT22;10678;51.002;4.786;2022-07-21T04:51:07;20.60;99.90
21039;DHT22;10678;51.002;4.786;2022-07-21T04:53:32;20.60;99.90
21039;DHT22;10678;51.002;4.786;2022-07-21T04:55:58;20.60;99.90
21039;DHT22;10678;51.002;4.786;2022-07-21T04:58:23;20.70;99.90
21039;DHT22;10678;51.002;4.786;2022-07-21T05:00:49;20.70;99.90
21039;DHT22;10678;51.002;4.786;2022-07-21T05:03:15;20.80;99.90
21039;DHT22;10678;51.002;4.786;2022-07-21T05:05:40;20.80;99.90
21039;DHT22;10678;51.002;4.786;2022-07-21T05:08:06;20.80;99.90
21039;DHT22;10678;51.002;4.786;2022-07-21T05:10:32;20.80;99.90
21039;DHT22;10678;51.002;4.786;2022-07-21T05:12:57;20.80;99.90
21039;DHT22;10678;51.002;4.786;2022-07-21T05:15:23;20.70;99.90
21039;DHT22;10678;51.002;4.786;2022-07-21T05:17:49;20.70;99.90
21039;DHT22;10678;51.002;4.786;2022-07-21T05:20:14;20.80;99.90
21039;DHT22;10678;51.002;4.786;2022-07-21T05:22:40;20.90;99.90
21039;DHT22;10678;51.002;4.786;2022-07-21T05:25:06;21.00;99.90
21039;DHT22;10678;51.002;4.786;2022-07-21T05:27:32;21.00;99.90
21039;DHT22;10678;51.002;4.786;2022-07-21T05:29:58;21.00;99.90
21039;DHT22;10678;51.002;4.786;2022-07-21T05:32:23;21.10;99.90
21039;DHT22;10678;51.002;4.786;2022-07-21T05:34:49;21.20;99.90
21039;DHT22;10678;51.002;4.786;2022-07-21T05:37:15;21.20;99.90
21039;DHT22;10678;51.002;4.786;2022-07-21T05:39:40;21.10;99.90
21039;DHT22;10678;51.002;4.786;2022-07-21T05:42:06;21.30;99.90
21039;DHT22;10678;51.002;4.786;2022-07-21T05:44:31;21.40;99.90
21039;DHT22;10678;51.002;4.786;2022-07-21T05:46:57;21.50;99.90
21039;DHT22;10678;51.002;4.786;2022-07-21T05:49:23;21.50;99.90
21039;DHT22;10678;51.002;4.786;2022-07-21T05:51:49;21.60;99.90
21039;DHT22;10678;51.002;4.786;2022-07-21T05:54:14;21.70;99.90
21039;DHT22;10678;51.002;4.786;2022-07-21T05:56:40;21.80;99.90
21039;DHT22;10678;51.002;4.786;2022-07-21T05:59:06;21.70;99.90
21039;DHT22;10678;51.002;4.786;2022-07-21T06:01:31;21.70;99.90
21039;DHT22;10678;51.002;4.786;2022-07-21T06:03:57;21.80;99.90
21039;DHT22;10678;51.002;4.786;2022-07-21T06:06:23;21.80;99.90
21039;DHT22;10678;51.002;4.786;2022-07-21T06:08:48;21.80;99.90
21039;DHT22;10678;51.002;4.786;2022-07-21T06:11:16;21.70;99.90
21039;DHT22;10678;51.002;4.786;2022-07-21T06:13:42;21.60;99.90
21039;DHT22;10678;51.002;4.786;2022-07-21T06:16:08;21.50;99.90
21039;DHT22;10678;51.002;4.786;2022-07-21T06:18:34;21.60;99.90
21039;DHT22;10678;51.002;4.786;2022-07-21T06:21:00;21.40;99.90
21039;DHT22;10678;51.002;4.786;2022-07-21T06:23:26;21.30;99.90
21039;DHT22;10678;51.002;4.786;2022-07-21T06:25:52;21.20;99.90
21039;DHT22;10678;51.002;4.786;2022-07-21T06:28:19;21.10;99.90
21039;DHT22;10678;51.002;4.786;2022-07-21T06:30:45;21.20;99.90
21039;DHT22;10678;51.002;4.786;2022-07-21T06:33:11;21.20;99.90
21039;DHT22;10678;51.002;4.786;2022-07-21T06:35:37;21.20;99.90
21039;DHT22;10678;51.002;4.786;2022-07-21T06:38:03;21.20;99.90
21039;DHT22;10678;51.002;4.786;2022-07-21T06:40:29;21.20;99.90
21039;DHT22;10678;51.002;4.786;2022-07-21T06:42:54;21.20;99.90
21039;DHT22;10678;51.002;4.786;2022-07-21T06:45:21;21.20;99.90
21039;DHT22;10678;51.002;4.786;2022-07-21T06:47:47;21.30;99.90
21039;DHT22;10678;51.002;4.786;2022-07-21T06:50:13;21.20;99.90
21039;DHT22;10678;51.002;4.786;2022-07-21T06:52:39;21.20;99.90
21039;DHT22;10678;51.002;4.786;2022-07-21T06:55:06;21.20;99.90
21039;DHT22;10678;51.002;4.786;2022-07-21T06:57:34;21.20;99.90
21039;DHT22;10678;51.002;4.786;2022-07-21T07:00:00;21.10;99.90
21039;DHT22;10678;51.002;4.786;2022-07-21T07:02:25;21.20;99.90
21039;DHT22;10678;51.002;4.786;2022-07-21T07:04:51;21.20;99.90
21039;DHT22;10678;51.002;4.786;2022-07-21T07:07:17;21.30;99.90
21039;DHT22;10678;51.002;4.786;2022-07-21T07:09:42;21.20;99.90
21039;DHT22;10678;51.002;4.786;2022-07-21T07:12:08;21.20;99.90
21039;DHT22;10678;51.002;4.786;2022-07-21T07:14:35;21.30;99.90
21039;DHT22;10678;51.002;4.786;2022-07-21T07:17:02;21.30;99.90
21039;DHT22;10678;51.002;4.786;2022-07-21T07:19:28;21.30;99.90
21039;DHT22;10678;51.002;4.786;2022-07-21T07:21:53;21.30;99.90
21039;DHT22;10678;51.002;4.786;2022-07-21T07:24:19;21.30;99.90
21039;DHT22;10678;51.002;4.786;2022-07-21T07:26:45;21.20;99.90
21039;DHT22;10678;51.002;4.786;2022-07-21T07:29:10;21.10;99.90
21039;DHT22;10678;51.002;4.786;2022-07-21T07:31:37;21.00;99.90
21039;DHT22;10678;51.002;4.786;2022-07-21T07:34:03;21.00;99.90
21039;DHT22;10678;51.002;4.786;2022-07-21T07:36:29;21.00;99.90
21039;DHT22;10678;51.002;4.786;2022-07-21T07:38:56;20.90;99.90
21039;DHT22;10678;51.002;4.786;2022-07-21T07:41:23;20.90;99.90
21039;DHT22;10678;51.002;4.786;2022-07-21T07:43:50;20.80;99.90
21039;DHT22;10678;51.002;4.786;2022-07-21T07:46:17;20.90;99.90
21039;DHT22;10678;51.002;4.786;2022-07-21T07:48:43;20.80;99.90
21039;DHT22;10678;51.002;4.786;2022-07-21T07:51:09;20.90;99.90
21039;DHT22;10678;51.002;4.786;2022-07-21T07:53:35;20.80;99.90
21039;DHT22;10678;51.002;4.786;2022-07-21T07:56:03;20.80;99.90
21039;DHT22;10678;51.002;4.786;2022-07-21T07:58:29;20.80;99.90
21039;DHT22;10678;51.002;4.786;2022-07-21T08:00:54;20.80;99.90
21039;DHT22;10678;51.002;4.786;2022-07-21T08:03:21;20.70;99.90
21039;DHT22;10678;51.002;4.786;2022-07-21T08:05:47;20.70;99.90
21039;DHT22;10678;51.002;4.786;2022-07-21T08:08:13;20.60;99.90
21039;DHT22;10678;51.002;4.786;2022-07-21T08:10:39;20.60;99.90
21039;DHT22;10678;51.002;4.786;2022-07-21T08:13:05;20.50;99.90
21039;DHT22;10678;51.002;4.786;2022-07-21T08:15:30;20.50;99.90
21039;DHT22;10678;51.002;4.786;2022-07-21T08:17:56;20.50;99.90
21039;DHT22;10678;51.002;4.786;2022-07-21T08:20:22;20.50;99.90
21039;DHT22;10678;51.002;4.786;2022-07-21T08:22:47;20.50;99.90
21039;DHT22;10678;51.002;4.786;2022-07-21T08:25:13;20.40;99.90
21039;DHT22;10678;51.002;4.786;2022-07-21T08:27:39;20.40;99.90
21039;DHT22;10678;51.002;4.786;2022-07-21T08:30:08;20.40;99.90
21039;DHT22;10678;51.002;4.786;2022-07-21T08:32:34;20.40;99.90
21039;DHT22;10678;51.002;4.786;2022-07-21T08:35:00;20.50;99.90
21039;DHT22;10678;51.002;4.786;2022-07-21T08:37:26;20.40;99.90
21039;DHT22;10678;51.002;4.786;2022-07-21T08:39:51;20.40;99.90
21039;DHT22;10678;51.002;4.786;2022-07-21T08:42:17;20.50;99.90
21039;DHT22;10678;51.002;4.786;2022-07-21T09:00:15;20.40;99.90
21039;DHT22;10678;51.002;4.786;2022-07-21T09:02:41;20.50;99.90
21039;DHT22;10678;51.002;4.786;2022-07-21T09:05:09;20.60;99.90
21039;DHT22;10678;51.002;4.786;2022-07-21T09:07:49;20.60;99.90
21039;DHT22;10678;51.002;4.786;2022-07-21T09:10:15;20.80;99.90
21039;DHT22;10678;51.002;4.786;2022-07-21T09:13:01;20.90;99.90
21039;DHT22;10678;51.002;4.786;2022-07-21T09:15:29;20.90;99.90
21039;DHT22;10678;51.002;4.786;2022-07-21T09:18:08;20.90;99.90
21039;DHT22;10678;51.002;4.786;2022-07-21T09:20:37;20.90;99.90
21039;DHT22;10678;51.002;4.786;2022-07-21T09:23:08;21.10;99.90
21039;DHT22;10678;51.002;4.786;2022-07-21T09:25:46;21.00;99.90
21039;DHT22;10678;51.002;4.786;2022-07-21T09:28:23;21.00;99.90
21039;DHT22;10678;51.002;4.786;2022-07-21T09:31:00;20.90;99.90
21039;DHT22;10678;51.002;4.786;2022-07-21T09:33:35;20.70;99.90
21039;DHT22;10678;51.002;4.786;2022-07-21T09:36:05;20.50;99.90
21039;DHT22;10678;51.002;4.786;2022-07-21T09:38:34;20.60;99.90
21039;DHT22;10678;51.002;4.786;2022-07-21T09:41:13;20.40;99.90
21039;DHT22;10678;51.002;4.786;2022-07-21T09:43:44;20.40;99.90
21039;DHT22;10678;51.002;4.786;2022-07-21T09:46:25;20.20;99.90
21039;DHT22;10678;51.002;4.786;2022-07-21T09:48:53;20.20;99.90
21039;DHT22;10678;51.002;4.786;2022-07-21T09:51:33;20.10;99.90
21039;DHT22;10678;51.002;4.786;2022-07-21T09:56:26;20.10;99.90
21039;DHT22;10678;51.002;4.786;2022-07-21T09:58:54;20.20;99.90
21039;DHT22;10678;51.002;4.786;2022-07-21T10:01:20;20.30;99.90
21039;DHT22;10678;51.002;4.786;2022-07-21T10:03:48;20.20;99.90
21039;DHT22;10678;51.002;4.786;2022-07-21T10:06:16;20.20;99.90
21039;DHT22;10678;51.002;4.786;2022-07-21T10:08:43;20.20;99.90
21039;DHT22;10678;51.002;4.786;2022-07-21T10:11:10;20.40;99.90
21039;DHT22;10678;51.002;4.786;2022-07-21T10:13:37;20.60;99.90
21039;DHT22;10678;51.002;4.786;2022-07-21T10:16:04;20.70;99.90
21039;DHT22;10678;51.002;4.786;2022-07-21T10:18:37;20.90;99.90
21039;DHT22;10678;51.002;4.786;2022-07-21T10:23:47;21.50;99.90
21039;DHT22;10678;51.002;4.786;2022-07-21T10:26:15;21.60;99.90
21039;DHT22;10678;51.002;4.786;2022-07-21T10:28:41;21.90;99.90
21039;DHT22;10678;51.002;4.786;2022-07-21T10:31:22;22.10;99.90
21039;DHT22;10678;51.002;4.786;2022-07-21T10:41:45;24.80;99.90
21039;DHT22;10678;51.002;4.786;2022-07-21T10:47:13;24.70;99.90
21039;DHT22;10678;51.002;4.786;2022-07-21T10:49:59;24.70;99.90
21039;DHT22;10678;51.002;4.786;2022-07-21T10:57:42;26.30;99.90
21039;DHT22;10678;51.002;4.786;2022-07-21T11:00:21;26.50;99.90
21039;DHT22;10678;51.002;4.786;2022-07-21T11:02:51;26.30;99.90
21039;DHT22;10678;51.002;4.786;2022-07-21T11:05:17;26.00;99.90
21039;DHT22;10678;51.002;4.786;2022-07-21T11:10:39;25.50;99.90
21039;DHT22;10678;51.002;4.786;2022-07-21T11:13:05;25.00;99.90
21039;DHT22;10678;51.002;4.786;2022-07-21T11:15:59;24.20;99.90
21039;DHT22;10678;51.002;4.786;2022-07-21T11:18:27;23.50;99.90
21039;DHT22;10678;51.002;4.786;2022-07-21T11:26:08;22.00;99.90
21039;DHT22;10678;51.002;4.786;2022-07-21T11:28:34;21.60;99.90
21039;DHT22;10678;51.002;4.786;2022-07-21T11:31:17;21.50;99.90
21039;DHT22;10678;51.002;4.786;2022-07-21T11:33:46;21.70;99.90
21039;DHT22;10678;51.002;4.786;2022-07-21T11:36:30;21.60;99.90
21039;DHT22;10678;51.002;4.786;2022-07-21T11:39:02;21.60;99.90
21039;DHT22;10678;51.002;4.786;2022-07-21T11:41:28;21.70;99.90
21039;DHT22;10678;51.002;4.786;2022-07-21T11:43:54;21.40;99.90
21039;DHT22;10678;51.002;4.786;2022-07-21T11:46:20;21.30;99.90
21039;DHT22;10678;51.002;4.786;2022-07-21T11:48:45;21.40;99.90
21039;DHT22;10678;51.002;4.786;2022-07-21T11:51:11;21.40;99.90
21039;DHT22;10678;51.002;4.786;2022-07-21T11:53:43;21.20;99.90
21039;DHT22;10678;51.002;4.786;2022-07-21T11:56:13;21.10;99.90
21039;DHT22;10678;51.002;4.786;2022-07-21T11:58:39;21.00;99.90
21039;DHT22;10678;51.002;4.786;2022-07-21T12:01:07;20.70;99.90
21039;DHT22;10678;51.002;4.786;2022-07-21T12:03:33;20.80;99.90
21039;DHT22;10678;51.002;4.786;2022-07-21T12:06:02;20.60;99.90
21039;DHT22;10678;51.002;4.786;2022-07-21T12:08:29;20.60;99.90
21039;DHT22;10678;51.002;4.786;2022-07-21T12:11:08;20.60;99.90
21039;DHT22;10678;51.002;4.786;2022-07-21T12:13:54;20.80;99.90
21039;DHT22;10678;51.002;4.786;2022-07-21T12:16:21;20.70;99.90
21039;DHT22;10678;51.002;4.786;2022-07-21T12:18:47;20.90;99.90
21039;DHT22;10678;51.002;4.786;2022-07-21T12:21:13;21.00;99.90
21039;DHT22;10678;51.002;4.786;2022-07-21T12:23:39;21.00;99.90
21039;DHT22;10678;51.002;4.786;2022-07-21T12:26:05;21.10;99.90
21039;DHT22;10678;51.002;4.786;2022-07-21T12:28:50;21.00;99.90
21039;DHT22;10678;51.002;4.786;2022-07-21T12:31:22;21.20;99.90
21039;DHT22;10678;51.002;4.786;2022-07-21T12:33:53;21.10;99.90
21039;DHT22;10678;51.002;4.786;2022-07-21T12:36:21;21.30;99.90
21039;DHT22;10678;51.002;4.786;2022-07-21T12:38:48;21.20;99.90
21039;DHT22;10678;51.002;4.786;2022-07-21T12:41:16;21.30;99.90
21039;DHT22;10678;51.002;4.786;2022-07-21T12:43:46;21.20;99.90
21039;DHT22;10678;51.002;4.786;2022-07-21T12:46:18;21.10;99.90
21039;DHT22;10678;51.002;4.786;2022-07-21T12:48:46;21.20;99.90
21039;DHT22;10678;51.002;4.786;2022-07-21T12:51:20;21.10;99.90
21039;DHT22;10678;51.002;4.786;2022-07-21T12:53:49;21.20;99.90
21039;DHT22;10678;51.002;4.786;2022-07-21T12:56:18;21.20;99.90
21039;DHT22;10678;51.002;4.786;2022-07-21T12:58:45;21.10;99.90
21039;DHT22;10678;51.002;4.786;2022-07-21T13:01:11;21.00;99.90
21039;DHT22;10678;51.002;4.786;2022-07-21T13:03:38;21.00;99.90
21039;DHT22;10678;51.002;4.786;2022-07-21T13:06:04;21.10;99.90
21039;DHT22;10678;51.002;4.786;2022-07-21T13:08:31;21.00;99.90
21039;DHT22;10678;51.002;4.786;2022-07-21T13:10:57;20.90;99.90
21039;DHT22;10678;51.002;4.786;2022-07-21T13:13:23;21.00;99.90
21039;DHT22;10678;51.002;4.786;2022-07-21T13:15:49;21.10;99.90
21039;DHT22;10678;51.002;4.786;2022-07-21T13:18:15;21.10;99.90
21039;DHT22;10678;51.002;4.786;2022-07-21T13:20:40;21.10;99.90
21039;DHT22;10678;51.002;4.786;2022-07-21T13:23:06;21.20;99.90
21039;DHT22;10678;51.002;4.786;2022-07-21T13:25:33;21.20;99.90
21039;DHT22;10678;51.002;4.786;2022-07-21T13:28:01;21.00;99.90
21039;DHT22;10678;51.002;4.786;2022-07-21T13:30:26;21.00;99.90
21039;DHT22;10678;51.002;4.786;2022-07-21T13:32:52;21.00;99.90
21039;DHT22;10678;51.002;4.786;2022-07-21T13:35:18;20.90;99.90
21039;DHT22;10678;51.002;4.786;2022-07-21T13:37:43;20.90;99.90
21039;DHT22;10678;51.002;4.786;2022-07-21T13:40:10;20.90;99.90
21039;DHT22;10678;51.002;4.786;2022-07-21T13:42:36;20.90;99.90
21039;DHT22;10678;51.002;4.786;2022-07-21T13:45:02;20.90;99.90
21039;DHT22;10678;51.002;4.786;2022-07-21T13:47:28;20.80;99.90
21039;DHT22;10678;51.002;4.786;2022-07-21T13:49:53;20.90;99.90
21039;DHT22;10678;51.002;4.786;2022-07-21T13:52:19;21.00;99.90
21039;DHT22;10678;51.002;4.786;2022-07-21T13:54:44;21.20;99.90
21039;DHT22;10678;51.002;4.786;2022-07-21T13:57:10;21.30;99.90
21039;DHT22;10678;51.002;4.786;2022-07-21T13:59:36;21.40;99.90
21039;DHT22;10678;51.002;4.786;2022-07-21T14:02:01;21.50;99.90
21039;DHT22;10678;51.002;4.786;2022-07-21T14:04:27;21.70;99.90
21039;DHT22;10678;51.002;4.786;2022-07-21T14:06:53;21.70;99.90
21039;DHT22;10678;51.002;4.786;2022-07-21T14:09:19;21.60;99.90
21039;DHT22;10678;51.002;4.786;2022-07-21T14:11:45;21.40;99.90
21039;DHT22;10678;51.002;4.786;2022-07-21T14:14:11;21.50;99.90
21039;DHT22;10678;51.002;4.786;2022-07-21T14:16:43;21.20;99.90
21039;DHT22;10678;51.002;4.786;2022-07-21T14:19:09;21.20;99.90
21039;DHT22;10678;51.002;4.786;2022-07-21T14:21:34;20.90;99.90
21039;DHT22;10678;51.002;4.786;2022-07-21T14:24:00;20.80;99.90
21039;DHT22;10678;51.002;4.786;2022-07-21T14:26:44;20.90;99.90
21039;DHT22;10678;51.002;4.786;2022-07-21T14:29:09;20.90;99.90
21039;DHT22;10678;51.002;4.786;2022-07-21T14:31:35;20.70;99.90
21039;DHT22;10678;51.002;4.786;2022-07-21T14:34:01;20.60;99.90
21039;DHT22;10678;51.002;4.786;2022-07-21T14:36:26;20.60;99.90
21039;DHT22;10678;51.002;4.786;2022-07-21T14:38:53;20.90;99.90
21039;DHT22;10678;51.002;4.786;2022-07-21T14:41:18;20.90;99.90
21039;DHT22;10678;51.002;4.786;2022-07-21T14:43:44;20.90;99.90
21039;DHT22;10678;51.002;4.786;2022-07-21T14:46:11;20.80;99.90
21039;DHT22;10678;51.002;4.786;2022-07-21T14:48:36;20.80;99.90
21039;DHT22;10678;51.002;4.786;2022-07-21T14:51:02;20.80;99.90
21039;DHT22;10678;51.002;4.786;2022-07-21T14:53:28;20.70;99.90
21039;DHT22;10678;51.002;4.786;2022-07-21T14:55:53;20.70;99.90
21039;DHT22;10678;51.002;4.786;2022-07-21T14:58:19;20.70;99.90
21039;DHT22;10678;51.002;4.786;2022-07-21T15:00:45;20.60;99.90
21039;DHT22;10678;51.002;4.786;2022-07-21T15:03:11;20.50;99.90
21039;DHT22;10678;51.002;4.786;2022-07-21T15:05:36;20.90;99.90
21039;DHT22;10678;51.002;4.786;2022-07-21T15:08:02;21.00;99.90
21039;DHT22;10678;51.002;4.786;2022-07-21T15:10:28;21.10;99.90
21039;DHT22;10678;51.002;4.786;2022-07-21T15:12:53;21.10;99.90
21039;DHT22;10678;51.002;4.786;2022-07-21T15:15:19;21.00;99.90
21039;DHT22;10678;51.002;4.786;2022-07-21T15:17:44;21.10;99.90
21039;DHT22;10678;51.002;4.786;2022-07-21T15:20:10;21.30;99.90
21039;DHT22;10678;51.002;4.786;2022-07-21T15:22:36;21.60;99.90
21039;DHT22;10678;51.002;4.786;2022-07-21T15:25:02;21.70;99.90
21039;DHT22;10678;51.002;4.786;2022-07-21T15:27:28;21.80;99.90
21039;DHT22;10678;51.002;4.786;2022-07-21T15:29:55;22.10;99.90
21039;DHT22;10678;51.002;4.786;2022-07-21T15:32:21;22.10;99.90
21039;DHT22;10678;51.002;4.786;2022-07-21T15:34:46;22.20;99.90
21039;DHT22;10678;51.002;4.786;2022-07-21T15:37:12;22.30;99.90
21039;DHT22;10678;51.002;4.786;2022-07-21T15:39:38;22.20;99.90
21039;DHT22;10678;51.002;4.786;2022-07-21T15:42:08;22.10;99.90
21039;DHT22;10678;51.002;4.786;2022-07-21T15:44:34;21.80;99.90
21039;DHT22;10678;51.002;4.786;2022-07-21T15:47:00;21.70;99.90
21039;DHT22;10678;51.002;4.786;2022-07-21T15:49:26;21.40;99.90
21039;DHT22;10678;51.002;4.786;2022-07-21T15:51:51;21.30;99.90
21039;DHT22;10678;51.002;4.786;2022-07-21T15:54:17;21.40;99.90
21039;DHT22;10678;51.002;4.786;2022-07-21T15:56:43;21.60;99.90
21039;DHT22;10678;51.002;4.786;2022-07-21T15:59:08;21.50;99.90
21039;DHT22;10678;51.002;4.786;2022-07-21T16:01:53;21.60;99.90
21039;DHT22;10678;51.002;4.786;2022-07-21T16:04:18;21.70;99.90
21039;DHT22;10678;51.002;4.786;2022-07-21T16:06:44;21.70;99.90
21039;DHT22;10678;51.002;4.786;2022-07-21T16:09:09;21.80;99.90
21039;DHT22;10678;51.002;4.786;2022-07-21T16:11:35;21.60;99.90
21039;DHT22;10678;51.002;4.786;2022-07-21T16:14:02;21.60;99.90
21039;DHT22;10678;51.002;4.786;2022-07-21T16:16:28;21.40;99.90